Řízení letového provozu České republiky
Letiste: LKMT Aktualizace: 01.07.2016 02:08:13  UTC
 METAR LKMT 01.07. 02:00 ...
METAR LKMT 010200Z 22004KT CAVOK 18/17 Q1017 NOSIG RMK REG QNH 1013=
 TAF LKMT 30.06. 23:00 ...
TAF LKMT 302300Z 0100/0206 VRB02KT CAVOK      TEMPO 0100/0102 7000 SHRA SCT030TCU      TEMPO 0110/0118 13006KT 7000 SHRA SCT030TCU      PROB30 TEMPO 0112/0118 06010G25KT 3000 TSRA SCT030CB=